createdAt,value
2022-08-25T00:01:28.389Z,96322.63
2022-08-25T00:03:59.652Z,96325.38
2022-08-25T00:06:31.068Z,96325.19
2022-08-25T00:08:59.984Z,96333.16
2022-08-25T00:11:31.742Z,96325.19
2022-08-25T00:14:04.799Z,96334.59
2022-08-25T00:16:33.568Z,96328.09
2022-08-25T00:19:04.144Z,96330.38
2022-08-25T00:21:32.744Z,96329.06
2022-08-25T00:24:03.061Z,96329.41
2022-08-25T00:26:34.146Z,96330.38
2022-08-25T00:29:06.024Z,96320.00
2022-08-25T00:31:38.755Z,96325.50
2022-08-25T00:34:09.641Z,96315.94
2022-08-25T00:36:38.401Z,96309.91
2022-08-25T00:39:07.555Z,96317.94
2022-08-25T00:41:36.388Z,96306.88
2022-08-25T00:44:08.934Z,96313.53
2022-08-25T00:46:39.776Z,96298.63
2022-08-25T00:49:16.366Z,96236.94
2022-08-25T00:51:55.910Z,96298.63
2022-08-25T00:54:27.326Z,96297.78
2022-08-25T00:56:56.705Z,96292.47
2022-08-25T00:59:27.208Z,96296.00
2022-08-25T01:01:56.209Z,96300.72
2022-08-25T01:04:24.649Z,96301.53
2022-08-25T01:06:53.240Z,96292.94
2022-08-25T01:09:21.510Z,96287.75
2022-08-25T01:11:49.765Z,96291.16
2022-08-25T01:14:20.743Z,96285.31
2022-08-25T01:16:51.140Z,96292.13
2022-08-25T01:19:22.274Z,96291.16
2022-08-25T01:21:52.884Z,96260.16
2022-08-25T01:24:26.406Z,96291.78
2022-08-25T01:26:54.667Z,96284.66
2022-08-25T01:29:25.311Z,96284.00
2022-08-25T01:31:57.837Z,96282.88
2022-08-25T01:34:27.086Z,96280.94
2022-08-25T01:36:57.307Z,96281.91
2022-08-25T01:39:26.297Z,96283.53
2022-08-25T01:42:35.252Z,96287.41
2022-08-25T01:45:03.381Z,96276.84
2022-08-25T01:47:32.148Z,96193.84
2022-08-25T01:50:00.391Z,96278.50
2022-08-25T01:52:35.226Z,96273.47
2022-08-25T01:55:03.430Z,96265.84
2022-08-25T01:57:32.441Z,96267.47
2022-08-25T02:00:01.797Z,96265.84
2022-08-25T02:02:31.663Z,96272.19
2022-08-25T02:05:01.159Z,96262.59
2022-08-25T02:07:30.687Z,96257.25
2022-08-25T02:09:59.076Z,96266.81
2022-08-25T02:12:34.307Z,96260.34
2022-08-25T02:15:02.895Z,96232.63
2022-08-25T02:17:31.207Z,96242.97
2022-08-25T02:19:59.532Z,96249.97
2022-08-25T02:22:28.906Z,96251.56
2022-08-25T02:24:58.456Z,96253.66
2022-08-25T02:27:26.578Z,96249.63
2022-08-25T02:29:54.773Z,96219.13
2022-08-25T02:32:23.185Z,96259.81
2022-08-25T02:34:51.528Z,96252.84
2022-08-25T02:37:20.603Z,96254.97
2022-08-25T02:39:48.839Z,96249.94
2022-08-25T02:42:18.431Z,96247.19
2022-08-25T02:44:46.596Z,96234.69
2022-08-25T02:47:14.777Z,96232.59
2022-08-25T02:49:43.080Z,96241.81
2022-08-25T02:52:11.253Z,96232.25
2022-08-25T02:54:39.428Z,96235.50
2022-08-25T02:57:07.763Z,96229.78
2022-08-25T02:59:37.387Z,96226.03
2022-08-25T03:02:06.034Z,96229.13
2022-08-25T03:04:34.301Z,96221.97
2022-08-25T03:07:03.299Z,96225.06
2022-08-25T03:09:31.564Z,96218.91
2022-08-25T03:12:02.469Z,96216.78
2022-08-25T03:14:30.600Z,96220.66
2022-08-25T03:17:00.245Z,96214.97
2022-08-25T03:19:28.476Z,96229.72
2022-08-25T03:21:57.658Z,96223.88
2022-08-25T03:24:25.972Z,96224.38
2022-08-25T03:26:56.046Z,96220.16
2022-08-25T03:29:25.970Z,96215.75
2022-08-25T03:31:55.537Z,96228.41
2022-08-25T03:34:27.841Z,96219.34
2022-08-25T03:36:58.087Z,96200.88
2022-08-25T03:39:27.467Z,96223.25
2022-08-25T03:41:55.676Z,96224.88
2022-08-25T03:44:23.998Z,96223.88
2022-08-25T03:46:53.619Z,96232.97
2022-08-25T03:49:25.486Z,96220.00
2022-08-25T03:51:55.140Z,96221.25
2022-08-25T03:54:25.431Z,96231.66
2022-08-25T03:56:53.902Z,96219.00
2022-08-25T03:59:22.452Z,96218.97
2022-08-25T04:01:54.871Z,96178.13
2022-08-25T04:04:25.514Z,96210.38
2022-08-25T04:06:54.178Z,96212.31
2022-08-25T04:09:22.527Z,96214.41
2022-08-25T04:11:53.135Z,96214.72
2022-08-25T04:14:23.548Z,96214.38
2022-08-25T04:16:53.038Z,96207.75
2022-08-25T04:19:22.075Z,96208.56
2022-08-25T04:21:51.944Z,96206.56
2022-08-25T04:24:25.101Z,96207.88
2022-08-25T04:26:53.345Z,96204.44
2022-08-25T04:29:23.537Z,96214.53
2022-08-25T04:31:52.701Z,96178.44
2022-08-25T04:34:30.555Z,96208.84
2022-08-25T04:37:03.024Z,96213.06
2022-08-25T04:39:31.652Z,96210.94
2022-08-25T04:42:00.806Z,96185.19
2022-08-25T04:44:30.003Z,96209.16
2022-08-25T04:46:58.213Z,96205.91
2022-08-25T04:49:26.571Z,96202.19
2022-08-25T04:51:56.591Z,96213.53
2022-08-25T04:54:26.377Z,96209.13
2022-08-25T04:56:58.633Z,96203.59
2022-08-25T04:59:29.899Z,96212.50
2022-08-25T05:02:02.635Z,96218.81
2022-08-25T05:04:32.777Z,96211.31
2022-08-25T05:07:02.781Z,96210.31
2022-08-25T05:09:33.081Z,96209.19
2022-08-25T05:12:02.324Z,96203.81
2022-08-25T05:14:31.431Z,96205.09
2022-08-25T05:17:00.165Z,96206.53
2022-08-25T05:19:28.583Z,96204.22
2022-08-25T05:21:58.010Z,96199.66
2022-08-25T05:24:28.011Z,96195.09
2022-08-25T05:26:58.421Z,96199.94
2022-08-25T05:29:27.079Z,96168.41
2022-08-25T05:31:55.909Z,96194.94
2022-08-25T05:34:24.928Z,96196.72
2022-08-25T05:36:53.199Z,96204.50
2022-08-25T05:39:21.509Z,96195.28
2022-08-25T05:41:49.822Z,96093.28
2022-08-25T05:44:21.330Z,96205.16
2022-08-25T05:46:51.294Z,96208.56
2022-08-25T05:49:19.889Z,96202.56
2022-08-25T05:51:48.192Z,96216.66
2022-08-25T05:54:16.523Z,96206.25
2022-08-25T05:56:45.501Z,96200.88
2022-08-25T05:59:13.862Z,96198.91
2022-08-25T06:02:01.827Z,96201.00
2022-08-25T06:04:39.576Z,96200.63
2022-08-25T06:07:09.363Z,96202.09
2022-08-25T06:09:42.084Z,96177.34
2022-08-25T06:12:11.324Z,96198.16
2022-08-25T06:14:40.247Z,96200.59
2022-08-25T06:17:10.768Z,96174.00
2022-08-25T06:19:41.229Z,96207.50
2022-08-25T06:22:12.526Z,96216.13
2022-08-25T06:24:40.807Z,96206.88
2022-08-25T06:27:09.337Z,96195.03
2022-08-25T06:29:38.271Z,96169.94
2022-08-25T06:32:06.859Z,96208.50
2022-08-25T06:34:37.054Z,96195.72
2022-08-25T06:37:05.593Z,96192.78
2022-08-25T06:39:38.697Z,96209.47
2022-08-25T06:42:07.462Z,96209.66
2022-08-25T06:44:36.438Z,96205.44
2022-08-25T06:47:04.874Z,96216.66
2022-08-25T06:49:36.199Z,96213.59
2022-08-25T06:52:06.846Z,96218.63
2022-08-25T06:54:35.162Z,96220.13
2022-08-25T06:57:04.559Z,96223.38
2022-08-25T06:59:35.664Z,96194.56
2022-08-25T07:02:05.368Z,96230.19
2022-08-25T07:04:34.643Z,96231.81
2022-08-25T07:07:04.227Z,96220.59
2022-08-25T07:09:38.588Z,96224.50
2022-08-25T07:12:08.343Z,96203.66
2022-08-25T07:14:37.093Z,96199.28
2022-08-25T07:17:12.052Z,96215.63
2022-08-25T07:19:41.171Z,96222.56
2022-08-25T07:22:09.536Z,96227.25
2022-08-25T07:24:39.126Z,96229.69
2022-08-25T07:27:07.664Z,96236.41
2022-08-25T07:29:42.191Z,96203.53
2022-08-25T07:32:10.966Z,96227.31
2022-08-25T07:34:56.649Z,96229.09
2022-08-25T07:37:47.885Z,96225.34
2022-08-25T07:40:18.079Z,96187.75
2022-08-25T07:42:46.579Z,96216.19
2022-08-25T07:45:15.482Z,96225.09
2022-08-25T07:47:46.031Z,96218.41
2022-08-25T07:50:14.762Z,96230.00
2022-08-25T07:52:43.085Z,96227.22
2022-08-25T07:55:12.099Z,96222.72
2022-08-25T07:57:50.903Z,96225.16
2022-08-25T08:00:24.750Z,96218.66
2022-08-25T08:02:52.999Z,96221.38
2022-08-25T08:05:23.815Z,96231.44
2022-08-25T08:07:53.936Z,96203.13
2022-08-25T08:13:17.704Z,96226.91
2022-08-25T08:15:47.472Z,96240.09
2022-08-25T08:18:16.098Z,96230.78
2022-08-25T08:20:46.130Z,96232.19
2022-08-25T08:23:14.430Z,96215.31
2022-08-25T08:25:42.583Z,96218.63
2022-08-25T08:28:12.319Z,96214.41
2022-08-25T08:30:53.372Z,96240.47
2022-08-25T08:33:24.407Z,96243.25
2022-08-25T08:35:59.221Z,96237.69
2022-08-25T08:38:27.890Z,96240.47
2022-08-25T08:41:22.937Z,96219.72
2022-08-25T08:43:57.782Z,96241.66
2022-08-25T08:46:29.392Z,96236.84
2022-08-25T08:49:03.435Z,96238.97
2022-08-25T08:51:33.596Z,96232.94
2022-08-25T08:54:15.683Z,96213.91
2022-08-25T08:56:48.634Z,96232.94
2022-08-25T08:59:21.549Z,96239.16
2022-08-25T09:01:54.601Z,96235.31
2022-08-25T09:04:31.258Z,96234.94
2022-08-25T09:07:05.060Z,96210.91
2022-08-25T09:09:35.655Z,96244.91
2022-08-25T09:12:11.741Z,96231.06
2022-08-25T09:14:54.019Z,96228.34
2022-08-25T09:17:32.845Z,96210.13
2022-08-25T09:20:20.495Z,96232.94
2022-08-25T09:22:54.118Z,96237.38
2022-08-25T09:25:48.662Z,96230.97
2022-08-25T09:28:40.681Z,96228.53
2022-08-25T09:31:17.101Z,96227.13
2022-08-25T09:33:45.341Z,96201.13
2022-08-25T09:36:15.020Z,96222.75
2022-08-25T09:38:43.598Z,96211.59
2022-08-25T09:41:12.183Z,96221.00
2022-08-25T09:43:44.689Z,96214.81
2022-08-25T09:46:16.504Z,96216.38
2022-08-25T09:48:56.098Z,96216.34
2022-08-25T09:51:27.562Z,96203.16
2022-08-25T09:53:58.381Z,96211.91
2022-08-25T09:56:28.897Z,96199.03
2022-08-25T09:59:03.076Z,96202.56
2022-08-25T10:01:34.940Z,96203.72
2022-08-25T10:04:06.688Z,96197.50
2022-08-25T10:06:48.913Z,96199.75
2022-08-25T10:09:30.608Z,96189.06
2022-08-25T10:12:01.504Z,96206.88
2022-08-25T10:14:44.348Z,96204.91
2022-08-25T10:17:27.727Z,96198.84
2022-08-25T10:20:18.337Z,96190.91
2022-08-25T10:22:50.307Z,96187.16
2022-08-25T10:25:26.057Z,96181.66
2022-08-25T10:28:00.939Z,96184.50
2022-08-25T10:30:32.983Z,96180.31
2022-08-25T10:33:12.698Z,96182.56
2022-08-25T10:35:49.593Z,96178.59
2022-08-25T10:38:36.264Z,96178.72
2022-08-25T10:41:24.977Z,96176.19
2022-08-25T10:43:58.722Z,96176.31
2022-08-25T10:46:31.336Z,96177.91
2022-08-25T10:49:05.386Z,96176.25
2022-08-25T10:51:45.985Z,96170.38
2022-08-25T10:54:28.376Z,96167.56
2022-08-25T10:57:08.145Z,96167.38
2022-08-25T10:59:57.315Z,96144.84
2022-08-25T11:02:51.008Z,96146.22
2022-08-25T11:05:28.261Z,96170.03
2022-08-25T11:08:04.988Z,96178.63
2022-08-25T11:10:40.074Z,96174.13
2022-08-25T11:13:14.202Z,96174.41
2022-08-25T11:16:06.579Z,96170.78
2022-08-25T11:18:36.006Z,96135.19
2022-08-25T11:21:10.630Z,96169.53
2022-08-25T11:23:42.643Z,96169.34
2022-08-25T11:26:12.944Z,96165.75
2022-08-25T11:28:50.822Z,96154.28
2022-08-25T11:31:20.295Z,96169.66
2022-08-25T11:33:50.577Z,96162.25
2022-08-25T11:36:29.357Z,96160.63
2022-08-25T11:39:09.325Z,96154.22
2022-08-25T11:41:43.554Z,96143.56
2022-08-25T11:44:33.880Z,96149.44
2022-08-25T11:47:21.553Z,96147.91
2022-08-25T11:49:56.830Z,96145.16
2022-08-25T11:52:51.055Z,96146.63
2022-08-25T11:55:23.126Z,96121.81
2022-08-25T11:57:53.724Z,96147.38
2022-08-25T12:00:41.338Z,96147.38
2022-08-25T12:03:46.252Z,96142.81
2022-08-25T12:06:36.586Z,96142.81
2022-08-25T12:09:21.264Z,96140.44
2022-08-25T12:11:58.449Z,96103.13
2022-08-25T12:14:48.026Z,96136.59
2022-08-25T12:17:29.615Z,96144.47
2022-08-25T12:20:00.144Z,96137.59
2022-08-25T12:22:53.408Z,96130.13
2022-08-25T12:25:51.512Z,96131.28
2022-08-25T12:28:46.795Z,96129.50
2022-08-25T12:31:27.530Z,96131.09
2022-08-25T12:34:08.311Z,96129.31
2022-08-25T12:36:40.904Z,96118.97
2022-08-25T12:39:24.405Z,96106.34
2022-08-25T12:44:42.388Z,96111.31
2022-08-25T12:47:31.936Z,96107.03
2022-08-25T12:50:34.112Z,96112.25
2022-08-25T12:53:11.337Z,96115.25
2022-08-25T12:55:45.514Z,96100.03
2022-08-25T12:58:15.082Z,96106.09
2022-08-25T13:01:01.668Z,96099.09
2022-08-25T13:03:55.712Z,96109.03
2022-08-25T13:06:40.365Z,96090.63
2022-08-25T13:09:29.722Z,96096.31
2022-08-25T13:12:05.716Z,96090.34
2022-08-25T13:14:39.466Z,96096.19
2022-08-25T13:17:09.589Z,96097.03
2022-08-25T13:19:38.428Z,96091.44
2022-08-25T13:22:16.240Z,96093.59
2022-08-25T13:27:29.007Z,96085.78
2022-08-25T13:30:03.556Z,96086.44
2022-08-25T13:32:35.410Z,96085.66
2022-08-25T13:35:14.375Z,96081.97
2022-08-25T13:37:42.263Z,96081.81
2022-08-25T13:40:12.786Z,96080.22
2022-08-25T13:42:42.573Z,96077.25
2022-08-25T13:45:18.132Z,96072.63
2022-08-25T13:47:47.436Z,96074.06
2022-08-25T13:50:22.663Z,96078.09
2022-08-25T13:52:52.719Z,96035.69
2022-08-25T13:55:22.827Z,96067.94
2022-08-25T13:57:56.792Z,96060.53
2022-08-25T14:00:36.000Z,96063.94
2022-08-25T14:03:12.832Z,96037.13
2022-08-25T14:05:45.612Z,96057.56
2022-08-25T14:08:32.387Z,96025.72
2022-08-25T14:11:15.085Z,96051.31
2022-08-25T14:13:44.669Z,96045.91
2022-08-25T14:16:17.535Z,96040.00
2022-08-25T14:18:50.691Z,96040.50
2022-08-25T14:21:20.886Z,96040.94
2022-08-25T14:23:49.488Z,96035.56
2022-08-25T14:26:18.189Z,96041.16
2022-08-25T14:28:46.633Z,96033.84
2022-08-25T14:31:37.274Z,96039.34
2022-08-25T14:34:09.680Z,96035.72
2022-08-25T14:36:41.006Z,96033.91
2022-08-25T14:39:10.678Z,96031.38
2022-08-25T14:41:42.023Z,96031.50
2022-08-25T14:44:11.672Z,96034.69
2022-08-25T14:46:47.285Z,96022.63
2022-08-25T14:49:24.987Z,96027.34
2022-08-25T14:51:55.547Z,96020.59
2022-08-25T14:54:27.972Z,96016.66
2022-08-25T14:56:58.048Z,96011.38
2022-08-25T14:59:27.294Z,96011.38
2022-08-25T15:01:57.281Z,96004.28
2022-08-25T15:04:28.623Z,96008.44
2022-08-25T15:06:59.093Z,96007.38
2022-08-25T15:09:33.383Z,96009.25
2022-08-25T15:12:03.429Z,95992.28
2022-08-25T15:14:34.286Z,95995.50
2022-08-25T15:17:05.128Z,96000.06
2022-08-25T15:19:36.500Z,95992.19
2022-08-25T15:22:05.220Z,95979.00
2022-08-25T15:24:37.774Z,95999.16
2022-08-25T15:27:10.198Z,95992.41
2022-08-25T15:29:38.857Z,96000.63
2022-08-25T15:32:09.909Z,95990.66
2022-08-25T15:34:38.876Z,95998.06
2022-08-25T15:37:09.309Z,95994.78
2022-08-25T15:39:37.695Z,96001.31
2022-08-25T15:42:06.506Z,95992.44
2022-08-25T15:44:34.954Z,95994.25
2022-08-25T15:47:04.399Z,96000.50
2022-08-25T15:49:34.878Z,96000.03
2022-08-25T15:52:03.429Z,95995.88
2022-08-25T15:54:31.832Z,95999.75
2022-08-25T15:57:00.589Z,95999.25
2022-08-25T15:59:29.486Z,96006.13
2022-08-25T16:01:57.990Z,96003.50
2022-08-25T16:04:28.730Z,95997.19
2022-08-25T16:06:59.601Z,95993.78
2022-08-25T16:09:28.887Z,95993.09
2022-08-25T16:12:04.049Z,95962.53
2022-08-25T16:14:34.932Z,96001.53
2022-08-25T16:17:03.374Z,95988.81
2022-08-25T16:19:31.818Z,95988.81
2022-08-25T16:22:02.094Z,95993.81
2022-08-25T16:24:30.508Z,95985.41
2022-08-25T16:27:11.771Z,95977.84
2022-08-25T16:29:40.939Z,95979.19
2022-08-25T16:32:10.386Z,95979.41
2022-08-25T16:34:39.432Z,95981.06
2022-08-25T16:37:09.218Z,95931.06
2022-08-25T16:39:44.394Z,95984.47
2022-08-25T16:42:13.642Z,95980.84
2022-08-25T16:44:42.198Z,95985.19
2022-08-25T16:47:10.878Z,95984.78
2022-08-25T16:49:42.436Z,95973.53
2022-08-25T16:52:30.609Z,95949.78
2022-08-25T16:55:15.260Z,95974.41
2022-08-25T16:57:47.546Z,95978.84
2022-08-25T17:00:18.711Z,95985.41
2022-08-25T17:02:47.795Z,95984.97
2022-08-25T17:05:16.860Z,95989.09
2022-08-25T17:08:08.926Z,95989.34
2022-08-25T17:10:39.730Z,95982.09
2022-08-25T17:13:08.996Z,95989.78
2022-08-25T17:15:42.101Z,95986.94
2022-08-25T17:18:12.903Z,95993.53
2022-08-25T17:20:43.562Z,95988.53
2022-08-25T17:23:14.012Z,95993.75
2022-08-25T17:25:43.587Z,95992.13
2022-08-25T17:28:13.058Z,95998.78
2022-08-25T17:30:41.853Z,95987.84
2022-08-25T17:33:10.034Z,95975.94
2022-08-25T17:35:40.284Z,95947.53
2022-08-25T17:38:08.808Z,95984.78
2022-08-25T17:40:39.200Z,95996.47
2022-08-25T17:43:09.709Z,95991.59
2022-08-25T17:45:39.084Z,95993.78
2022-08-25T17:48:08.876Z,95994.56
2022-08-25T17:50:39.232Z,96003.31
2022-08-25T17:53:07.643Z,95992.78
2022-08-25T17:55:40.257Z,96000.38
2022-08-25T18:10:24.367Z,96001.16
2022-08-25T18:12:57.630Z,95992.06
2022-08-25T18:15:26.074Z,95979.34
2022-08-25T18:17:59.632Z,95988.94
2022-08-25T18:20:28.751Z,95992.91
2022-08-25T18:22:58.848Z,96002.56
2022-08-25T18:25:29.299Z,96004.50
2022-08-25T18:27:59.339Z,95998.19
2022-08-25T18:30:29.355Z,96002.53
2022-08-25T18:35:51.339Z,96003.59
2022-08-25T18:38:37.500Z,96003.00
2022-08-25T18:41:07.974Z,96007.47
2022-08-25T18:43:38.466Z,96017.97
2022-08-25T18:46:09.208Z,96017.97
2022-08-25T18:48:38.692Z,96012.31
2022-08-25T18:51:10.436Z,96022.66
2022-08-25T18:53:50.340Z,96020.34
2022-08-25T18:56:20.141Z,96018.72
2022-08-25T18:58:50.177Z,96022.44
2022-08-25T19:01:21.451Z,96026.53
2022-08-25T19:03:50.837Z,96025.00
2022-08-25T19:06:20.899Z,96013.25
2022-08-25T19:08:52.515Z,96027.97
2022-08-25T19:11:22.449Z,96029.59
2022-08-25T19:13:52.771Z,96035.59
2022-08-25T19:16:32.889Z,96015.03
2022-08-25T19:19:03.860Z,96027.78
2022-08-25T19:21:32.947Z,96015.78
2022-08-25T19:24:01.399Z,96013.53
2022-08-25T19:26:33.388Z,96024.22
2022-08-25T19:29:04.088Z,96004.84
2022-08-25T19:31:33.590Z,96020.28
2022-08-25T19:34:03.292Z,96028.25
2022-08-25T19:36:32.189Z,96029.59
2022-08-25T19:39:02.517Z,96015.22
2022-08-25T19:41:32.527Z,96012.78
2022-08-25T19:44:04.037Z,96028.38
2022-08-25T19:46:38.513Z,96024.50
2022-08-25T19:49:12.820Z,96021.78
2022-08-25T19:51:43.846Z,96028.94
2022-08-25T19:54:15.223Z,96018.78
2022-08-25T19:56:54.943Z,96024.91
2022-08-25T19:59:34.369Z,96032.97
2022-08-25T20:02:15.128Z,96034.53
2022-08-25T20:04:49.134Z,96024.81
2022-08-25T20:07:19.107Z,96031.09
2022-08-25T20:09:48.885Z,96035.66
2022-08-25T20:12:18.435Z,96023.22
2022-08-25T20:14:51.859Z,96023.41
2022-08-25T20:17:24.694Z,96025.72
2022-08-25T20:19:57.436Z,96015.47
2022-08-25T20:22:27.039Z,95999.31
2022-08-25T20:24:58.652Z,96011.09
2022-08-25T20:27:30.640Z,96019.53
2022-08-25T20:30:02.569Z,96026.00
2022-08-25T20:32:34.096Z,96017.28
2022-08-25T20:35:03.391Z,96030.56
2022-08-25T20:37:33.791Z,96010.34
2022-08-25T20:40:02.534Z,96017.91
2022-08-25T20:42:31.332Z,96017.78
2022-08-25T20:45:01.193Z,96010.25
2022-08-25T20:47:30.018Z,96011.31
2022-08-25T20:50:04.529Z,96015.56
2022-08-25T20:52:35.085Z,96003.97
2022-08-25T20:55:03.753Z,96021.72
2022-08-25T20:57:33.407Z,96005.94
2022-08-25T21:00:04.866Z,96007.34
2022-08-25T21:02:33.538Z,96025.03
2022-08-25T21:05:03.628Z,96012.44
2022-08-25T21:07:32.118Z,96015.59
2022-08-25T21:10:06.634Z,96018.00
2022-08-25T21:12:39.071Z,96025.28
2022-08-25T21:15:18.486Z,96025.44
2022-08-25T21:17:50.564Z,96021.59
2022-08-25T21:20:19.192Z,96004.16
2022-08-25T21:22:48.357Z,96027.59
2022-08-25T21:25:18.856Z,96032.00
2022-08-25T21:27:48.085Z,96020.69
2022-08-25T21:30:19.743Z,96029.72
2022-08-25T21:32:53.751Z,96020.50
2022-08-25T21:35:23.339Z,96011.16
2022-08-25T21:37:53.313Z,96023.97
2022-08-25T21:40:22.825Z,96019.59
2022-08-25T21:42:51.439Z,96013.78
2022-08-25T21:45:21.968Z,96016.69
2022-08-25T21:47:51.900Z,96004.81
2022-08-25T21:50:21.256Z,96006.63
2022-08-25T21:52:54.576Z,96000.34
2022-08-25T21:55:23.874Z,95997.09
2022-08-25T21:57:53.185Z,95990.50
2022-08-25T22:00:24.147Z,95945.59
2022-08-25T22:02:53.008Z,96004.59
2022-08-25T22:05:21.600Z,95995.88
2022-08-25T22:07:50.200Z,95991.03
2022-08-25T22:10:21.186Z,95965.00
2022-08-25T22:12:51.516Z,95994.28
2022-08-25T22:15:20.762Z,95986.94
2022-08-25T22:17:50.673Z,95985.38
2022-08-25T22:20:20.118Z,95985.91
2022-08-25T22:22:48.678Z,95918.44
2022-08-25T22:25:17.553Z,95992.81
2022-08-25T22:27:46.453Z,95995.41
2022-08-25T22:30:15.214Z,95976.47
2022-08-25T22:32:45.429Z,95994.09
2022-08-25T22:35:15.416Z,95974.34
2022-08-25T22:37:47.751Z,95982.78
2022-08-25T22:40:16.579Z,95981.16
2022-08-25T22:42:48.045Z,95976.66
2022-08-25T22:45:17.000Z,95970.19
2022-08-25T22:47:45.405Z,95974.56
2022-08-25T22:50:17.289Z,95959.38
2022-08-25T22:52:47.514Z,95964.41
2022-08-25T22:55:16.513Z,95945.97
2022-08-25T22:57:45.073Z,95967.34
2022-08-25T23:00:15.332Z,95966.38
2022-08-25T23:02:45.552Z,95967.34
2022-08-25T23:05:16.426Z,95963.50
2022-08-25T23:07:45.094Z,95892.38
2022-08-25T23:10:14.943Z,95963.97
2022-08-25T23:12:44.025Z,95952.50
2022-08-25T23:15:13.375Z,95965.09
2022-08-25T23:17:42.858Z,95965.09
2022-08-25T23:20:25.815Z,95966.69
2022-08-25T23:22:56.342Z,95959.09
2022-08-25T23:25:26.127Z,95958.00
2022-08-25T23:27:54.935Z,95946.34
2022-08-25T23:30:27.212Z,95959.31
2022-08-25T23:32:56.436Z,95948.78
2022-08-25T23:35:24.803Z,95942.44
2022-08-25T23:37:53.469Z,95953.00
2022-08-25T23:40:23.738Z,95938.75
2022-08-25T23:42:52.275Z,95940.41
2022-08-25T23:45:21.109Z,95943.94
2022-08-25T23:47:50.000Z,95938.28
2022-08-25T23:50:19.042Z,95937.63
2022-08-25T23:52:48.073Z,95927.44
2022-08-25T23:55:16.717Z,95921.94
2022-08-25T23:57:46.706Z,95925.16
